createdAt,value
2023-01-25T00:01:54.372Z,63.96
2023-01-25T00:04:23.006Z,63.58
2023-01-25T00:06:51.796Z,63.63
2023-01-25T00:09:20.507Z,63.50
2023-01-25T00:11:48.669Z,64.35
2023-01-25T00:14:17.861Z,64.83
2023-01-25T00:16:45.660Z,63.90
2023-01-25T00:19:13.453Z,63.84
2023-01-25T00:21:41.193Z,64.10
2023-01-25T00:24:11.502Z,64.16
2023-01-25T00:26:39.929Z,64.14
2023-01-25T00:29:07.812Z,64.18
2023-01-25T00:31:46.471Z,63.76
2023-01-25T00:34:39.441Z,63.69
2023-01-25T00:37:15.133Z,64.38
2023-01-25T00:39:42.721Z,64.21
2023-01-25T00:42:11.779Z,65.20
2023-01-25T00:44:39.834Z,65.13
2023-01-25T00:47:08.686Z,65.03
2023-01-25T00:49:36.238Z,65.02
2023-01-25T00:52:03.743Z,64.64
2023-01-25T00:54:31.273Z,65.05
2023-01-25T00:56:59.218Z,65.79
2023-01-25T00:59:26.885Z,65.98
2023-01-25T01:01:55.197Z,66.19
2023-01-25T01:04:25.220Z,66.25
2023-01-25T01:06:53.881Z,66.33
2023-01-25T01:09:23.395Z,66.41
2023-01-25T01:11:51.340Z,66.23
2023-01-25T01:14:18.890Z,65.93
2023-01-25T01:16:46.577Z,65.89
2023-01-25T01:19:14.467Z,65.31
2023-01-25T01:21:43.627Z,65.28
2023-01-25T01:24:11.716Z,64.92
2023-01-25T01:26:39.264Z,64.53
2023-01-25T01:29:07.302Z,64.36
2023-01-25T01:31:34.911Z,65.15
2023-01-25T01:34:02.483Z,64.99
2023-01-25T01:36:31.480Z,64.92
2023-01-25T01:39:00.772Z,64.64
2023-01-25T01:41:28.920Z,65.07
2023-01-25T01:43:56.438Z,65.10
2023-01-25T01:46:29.502Z,64.92
2023-01-25T01:49:01.914Z,65.46
2023-01-25T01:51:40.059Z,65.57
2023-01-25T01:54:12.576Z,64.73
2023-01-25T01:56:46.374Z,64.98
2023-01-25T01:59:14.435Z,65.47
2023-01-25T02:01:42.795Z,65.82
2023-01-25T02:04:10.503Z,65.75
2023-01-25T02:06:45.064Z,66.30
2023-01-25T02:09:16.881Z,66.26
2023-01-25T02:11:44.717Z,65.54
2023-01-25T02:14:12.314Z,65.83
2023-01-25T02:16:40.135Z,65.97
2023-01-25T02:19:10.268Z,65.70
2023-01-25T02:21:45.615Z,65.89
2023-01-25T02:24:19.077Z,65.70
2023-01-25T02:26:48.070Z,65.26
2023-01-25T02:29:16.140Z,65.52
2023-01-25T02:31:46.103Z,65.54
2023-01-25T02:34:13.861Z,65.43
2023-01-25T02:36:41.706Z,65.50
2023-01-25T02:39:13.872Z,66.19
2023-01-25T02:41:42.669Z,66.08
2023-01-25T02:44:15.069Z,66.31
2023-01-25T02:46:44.895Z,65.74
2023-01-25T02:49:13.048Z,65.96
2023-01-25T02:51:42.569Z,66.11
2023-01-25T02:54:11.943Z,66.62
2023-01-25T02:56:40.626Z,66.19
2023-01-25T02:59:08.634Z,66.07
2023-01-25T03:01:40.196Z,66.95
2023-01-25T03:04:08.208Z,67.27
2023-01-25T03:06:36.615Z,67.48
2023-01-25T03:09:04.604Z,66.94
2023-01-25T03:11:32.191Z,66.72
2023-01-25T03:13:59.927Z,66.63
2023-01-25T03:16:27.538Z,66.27
2023-01-25T03:18:56.953Z,66.76
2023-01-25T03:21:24.561Z,65.96
2023-01-25T03:23:57.259Z,66.06
2023-01-25T03:26:26.996Z,66.23
2023-01-25T03:28:54.686Z,65.93
2023-01-25T03:31:22.300Z,65.92
2023-01-25T03:33:49.880Z,65.88
2023-01-25T03:36:18.782Z,65.97
2023-01-25T03:38:46.320Z,66.14
2023-01-25T03:41:14.861Z,65.92
2023-01-25T03:43:42.315Z,65.83
2023-01-25T03:46:09.942Z,66.07
2023-01-25T03:48:37.418Z,66.64
2023-01-25T03:51:05.052Z,66.47
2023-01-25T03:53:33.941Z,66.49
2023-01-25T03:56:03.307Z,66.58
2023-01-25T03:58:31.729Z,66.64
2023-01-25T04:01:01.164Z,66.94
2023-01-25T04:03:31.412Z,66.25
2023-01-25T04:05:59.576Z,66.80
2023-01-25T04:08:27.822Z,65.98
2023-01-25T04:10:58.740Z,66.47
2023-01-25T04:13:26.317Z,66.66
2023-01-25T04:15:53.855Z,66.51
2023-01-25T04:18:21.953Z,66.51
2023-01-25T04:20:54.438Z,66.62
2023-01-25T04:23:22.942Z,67.04
2023-01-25T04:25:54.546Z,66.96
2023-01-25T04:28:24.346Z,68.00
2023-01-25T04:30:51.967Z,67.67
2023-01-25T04:33:19.487Z,67.30
2023-01-25T04:35:47.102Z,67.28
2023-01-25T04:38:14.631Z,67.93
2023-01-25T04:40:43.489Z,67.27
2023-01-25T04:43:13.584Z,67.58
2023-01-25T04:45:42.688Z,67.88
2023-01-25T04:48:11.856Z,68.08
2023-01-25T04:50:40.856Z,67.84
2023-01-25T04:53:09.479Z,67.80
2023-01-25T04:55:37.419Z,67.70
2023-01-25T04:58:05.253Z,68.23
2023-01-25T05:00:33.176Z,68.32
2023-01-25T05:03:02.004Z,68.65
2023-01-25T05:05:29.525Z,69.09
2023-01-25T05:07:57.025Z,69.22
2023-01-25T05:10:24.634Z,68.82
2023-01-25T05:12:52.127Z,69.25
2023-01-25T05:15:19.911Z,68.65
2023-01-25T05:17:47.389Z,69.08
2023-01-25T05:20:16.376Z,68.61
2023-01-25T05:22:43.837Z,68.10
2023-01-25T05:25:31.439Z,68.72
2023-01-25T05:27:57.949Z,68.07
2023-01-25T05:30:25.449Z,68.68
2023-01-25T05:32:52.924Z,69.28
2023-01-25T05:35:21.762Z,69.27
2023-01-25T05:37:49.277Z,69.63
2023-01-25T05:40:17.056Z,69.35
2023-01-25T05:42:44.575Z,69.56
2023-01-25T05:45:12.442Z,69.03
2023-01-25T05:47:39.963Z,69.28
2023-01-25T05:50:09.551Z,69.43
2023-01-25T05:52:38.493Z,69.35
2023-01-25T05:55:07.151Z,68.46
2023-01-25T05:57:34.890Z,69.08
2023-01-25T06:00:02.510Z,68.41
2023-01-25T06:02:30.115Z,69.17
2023-01-25T06:04:57.717Z,68.72
2023-01-25T06:07:25.551Z,68.76
2023-01-25T06:09:54.520Z,68.19
2023-01-25T06:12:22.357Z,68.77
2023-01-25T06:14:49.905Z,69.11
2023-01-25T06:17:17.372Z,69.37
2023-01-25T06:19:44.876Z,69.62
2023-01-25T06:22:12.371Z,69.66
2023-01-25T06:24:39.948Z,69.90
2023-01-25T06:27:08.829Z,70.08
2023-01-25T06:29:36.288Z,69.16
2023-01-25T06:32:04.019Z,69.83
2023-01-25T06:34:31.736Z,69.48
2023-01-25T06:36:59.233Z,69.11
2023-01-25T06:39:26.736Z,69.31
2023-01-25T06:41:54.955Z,69.36
2023-01-25T06:44:23.779Z,69.15
2023-01-25T06:46:51.308Z,69.52
2023-01-25T06:49:18.875Z,69.99
2023-01-25T06:51:46.369Z,70.07
2023-01-25T06:54:13.925Z,70.36
2023-01-25T06:56:41.423Z,71.04
2023-01-25T06:59:10.598Z,70.31
2023-01-25T07:01:39.770Z,70.52
2023-01-25T07:04:08.221Z,70.20
2023-01-25T07:06:36.474Z,71.03
2023-01-25T07:09:05.562Z,70.42
2023-01-25T07:11:33.031Z,70.29
2023-01-25T07:14:00.560Z,70.76
2023-01-25T07:16:28.505Z,70.18
2023-01-25T07:18:57.394Z,69.83
2023-01-25T07:21:25.601Z,69.88
2023-01-25T07:23:53.681Z,70.23
2023-01-25T07:26:23.687Z,70.56
2023-01-25T07:28:51.769Z,70.42
2023-01-25T07:31:20.633Z,69.87
2023-01-25T07:33:50.003Z,69.93
2023-01-25T07:36:19.235Z,70.38
2023-01-25T07:38:46.789Z,70.17
2023-01-25T07:41:18.195Z,70.18
2023-01-25T07:43:45.834Z,70.03
2023-01-25T07:46:15.546Z,69.87
2023-01-25T07:48:50.828Z,69.55
2023-01-25T07:51:27.871Z,69.55
2023-01-25T07:53:57.260Z,70.17
2023-01-25T07:56:26.491Z,70.17
2023-01-25T07:58:54.937Z,69.96
2023-01-25T08:01:23.693Z,70.36
2023-01-25T08:03:52.209Z,70.01
2023-01-25T08:06:27.431Z,69.88
2023-01-25T08:08:55.356Z,70.22
2023-01-25T08:11:25.080Z,69.74
2023-01-25T08:13:52.711Z,70.06
2023-01-25T08:16:22.065Z,70.47
2023-01-25T08:18:50.764Z,70.27
2023-01-25T08:21:18.579Z,70.35
2023-01-25T08:23:47.995Z,70.24
2023-01-25T08:26:17.917Z,69.97
2023-01-25T08:28:45.481Z,69.81
2023-01-25T08:31:15.287Z,70.77
2023-01-25T08:33:45.979Z,70.96
2023-01-25T08:36:14.353Z,71.19
2023-01-25T08:38:42.248Z,71.21
2023-01-25T08:41:13.262Z,70.53
2023-01-25T08:43:41.227Z,70.35
2023-01-25T08:46:08.766Z,70.24
2023-01-25T08:48:36.372Z,70.63
2023-01-25T08:51:06.217Z,71.21
2023-01-25T08:53:34.027Z,70.11
2023-01-25T08:56:06.053Z,70.86
2023-01-25T08:58:35.226Z,70.81
2023-01-25T09:01:05.779Z,70.83
2023-01-25T09:03:36.507Z,70.76
2023-01-25T09:06:04.653Z,70.66
2023-01-25T09:08:32.214Z,71.07
2023-01-25T09:11:02.276Z,70.75
2023-01-25T09:13:29.984Z,70.82
2023-01-25T09:16:02.587Z,70.98
2023-01-25T09:18:30.558Z,69.93
2023-01-25T09:20:59.043Z,70.95
2023-01-25T09:23:26.856Z,69.66
2023-01-25T09:26:00.928Z,70.15
2023-01-25T09:28:30.896Z,70.46
2023-01-25T09:31:19.913Z,70.41
2023-01-25T09:33:49.271Z,70.28
2023-01-25T09:36:16.811Z,70.06
2023-01-25T09:38:45.027Z,70.13
2023-01-25T09:41:28.787Z,70.35
2023-01-25T09:44:14.830Z,70.39
2023-01-25T09:46:45.337Z,71.14
2023-01-25T09:49:26.307Z,70.91
2023-01-25T09:52:11.727Z,71.01
2023-01-25T09:54:46.964Z,70.98
2023-01-25T09:57:17.362Z,71.17
2023-01-25T09:59:47.909Z,71.36
2023-01-25T10:02:29.473Z,70.67
2023-01-25T10:05:05.670Z,71.09
2023-01-25T10:07:50.781Z,71.83
2023-01-25T10:10:22.608Z,71.49
2023-01-25T10:12:50.155Z,71.50
2023-01-25T10:15:22.407Z,70.68
2023-01-25T10:17:59.180Z,70.00
2023-01-25T10:20:36.218Z,70.24
2023-01-25T10:23:28.085Z,70.27
2023-01-25T10:26:00.274Z,69.75
2023-01-25T10:28:39.556Z,70.04
2023-01-25T10:31:12.552Z,69.78
2023-01-25T10:33:44.737Z,69.76
2023-01-25T10:36:16.523Z,69.24
2023-01-25T10:38:46.298Z,70.00
2023-01-25T10:41:21.163Z,69.90
2023-01-25T10:44:08.958Z,70.55
2023-01-25T10:46:38.706Z,70.15
2023-01-25T10:49:21.048Z,70.10
2023-01-25T10:51:49.900Z,69.71
2023-01-25T10:54:17.597Z,70.09
2023-01-25T10:56:46.955Z,70.17
2023-01-25T10:59:21.533Z,70.24
2023-01-25T11:01:49.235Z,69.94
2023-01-25T11:04:32.141Z,70.37
2023-01-25T11:07:02.521Z,71.29
2023-01-25T11:09:40.417Z,71.14
2023-01-25T11:12:19.254Z,71.15
2023-01-25T11:14:49.656Z,71.31
2023-01-25T11:17:30.106Z,70.80
2023-01-25T11:20:18.844Z,71.31
2023-01-25T11:22:56.516Z,71.65
2023-01-25T11:25:28.343Z,71.09
2023-01-25T11:28:11.811Z,70.40
2023-01-25T11:30:39.737Z,70.09
2023-01-25T11:33:11.578Z,70.39
2023-01-25T11:35:49.750Z,70.13
2023-01-25T11:38:23.069Z,70.18
2023-01-25T11:40:57.506Z,69.45
2023-01-25T11:43:43.596Z,69.70
2023-01-25T11:46:26.307Z,69.38
2023-01-25T11:49:10.606Z,68.88
2023-01-25T11:51:44.597Z,68.21
2023-01-25T11:54:35.072Z,68.58
2023-01-25T11:57:11.788Z,69.45
2023-01-25T12:00:04.910Z,69.54
2023-01-25T12:02:59.645Z,68.99
2023-01-25T12:05:40.746Z,68.46
2023-01-25T12:08:23.111Z,68.64
2023-01-25T12:10:59.995Z,69.31
2023-01-25T12:13:38.482Z,69.05
2023-01-25T12:16:27.655Z,68.84
2023-01-25T12:19:32.895Z,68.36
2023-01-25T12:22:17.135Z,68.55
2023-01-25T12:24:56.880Z,68.23
2023-01-25T12:27:42.634Z,68.30
2023-01-25T12:30:16.069Z,68.34
2023-01-25T12:32:49.927Z,68.61
2023-01-25T12:35:26.382Z,67.84
2023-01-25T12:37:58.334Z,68.39
2023-01-25T12:40:33.595Z,67.90
2023-01-25T12:43:02.530Z,68.54
2023-01-25T12:45:34.862Z,68.56
2023-01-25T12:48:10.904Z,69.55
2023-01-25T12:50:42.785Z,69.12
2023-01-25T12:53:18.830Z,69.22
2023-01-25T12:55:47.410Z,69.64
2023-01-25T12:58:32.792Z,69.55
2023-01-25T13:01:13.622Z,69.16
2023-01-25T13:03:53.787Z,68.07
2023-01-25T13:06:27.214Z,68.05
2023-01-25T13:09:03.916Z,68.17
2023-01-25T13:11:35.835Z,68.69
2023-01-25T13:14:36.256Z,67.37
2023-01-25T13:17:23.736Z,68.73
2023-01-25T13:19:53.243Z,67.73
2023-01-25T13:22:58.410Z,68.05
2023-01-25T13:25:27.335Z,68.13
2023-01-25T13:28:38.215Z,67.85
2023-01-25T13:31:07.179Z,68.56
2023-01-25T13:33:36.222Z,69.12
2023-01-25T13:36:43.278Z,68.81
2023-01-25T13:39:43.239Z,68.99
2023-01-25T13:42:21.753Z,68.91
2023-01-25T13:44:51.970Z,68.22
2023-01-25T13:47:23.877Z,67.76
2023-01-25T13:49:57.736Z,68.27
2023-01-25T13:52:27.134Z,68.01
2023-01-25T13:54:56.806Z,67.76
2023-01-25T13:57:25.976Z,67.65
2023-01-25T14:00:10.165Z,67.42
2023-01-25T14:02:42.382Z,68.03
2023-01-25T14:05:19.784Z,68.18
2023-01-25T14:07:50.039Z,67.45
2023-01-25T14:10:23.276Z,67.30
2023-01-25T14:12:51.686Z,67.45
2023-01-25T14:15:22.432Z,67.44
2023-01-25T14:18:15.023Z,67.48
2023-01-25T14:20:43.508Z,67.00
2023-01-25T14:23:25.646Z,67.77
2023-01-25T14:25:54.843Z,67.68
2023-01-25T14:28:22.608Z,68.09
2023-01-25T14:30:54.867Z,68.08
2023-01-25T14:33:27.392Z,67.89
2023-01-25T14:36:01.686Z,68.03
2023-01-25T14:38:36.262Z,67.96
2023-01-25T14:41:10.140Z,68.33
2023-01-25T14:43:38.314Z,67.84
2023-01-25T14:46:27.292Z,69.38
2023-01-25T14:49:10.419Z,69.01
2023-01-25T14:51:43.291Z,68.68
2023-01-25T14:54:18.464Z,69.01
2023-01-25T14:56:48.107Z,68.65
2023-01-25T14:59:34.997Z,68.98
2023-01-25T15:02:05.762Z,69.65
2023-01-25T15:04:35.692Z,68.88
2023-01-25T15:07:12.762Z,69.30
2023-01-25T15:10:03.772Z,69.42
2023-01-25T15:12:32.917Z,68.72
2023-01-25T15:15:00.782Z,68.45
2023-01-25T15:17:43.981Z,69.14
2023-01-25T15:20:31.260Z,68.23
2023-01-25T15:23:01.282Z,69.01
2023-01-25T15:25:29.061Z,68.66
2023-01-25T15:27:56.542Z,69.12
2023-01-25T15:30:24.019Z,69.93
2023-01-25T15:32:51.800Z,69.25
2023-01-25T15:35:21.275Z,69.08
2023-01-25T15:37:50.152Z,68.95
2023-01-25T15:40:18.070Z,69.25
2023-01-25T15:42:45.625Z,68.74
2023-01-25T15:45:13.117Z,69.14
2023-01-25T15:47:40.945Z,68.63
2023-01-25T15:50:18.859Z,68.95
2023-01-25T15:52:47.163Z,68.16
2023-01-25T15:55:16.077Z,68.36
2023-01-25T15:57:44.751Z,68.95
2023-01-25T16:00:18.072Z,68.68
2023-01-25T16:02:45.687Z,68.83
2023-01-25T16:05:13.543Z,68.88
2023-01-25T16:07:43.175Z,69.15
2023-01-25T16:10:22.639Z,69.53
2023-01-25T16:12:50.526Z,70.26
2023-01-25T16:15:18.538Z,70.41
2023-01-25T16:17:46.059Z,69.75
2023-01-25T16:20:21.724Z,69.36
2023-01-25T16:22:49.258Z,69.72
2023-01-25T16:25:16.988Z,68.84
2023-01-25T16:27:45.900Z,69.07
2023-01-25T16:30:20.582Z,69.25
2023-01-25T16:32:50.106Z,68.72
2023-01-25T16:35:17.840Z,68.75
2023-01-25T16:37:45.504Z,68.29
2023-01-25T16:40:23.735Z,69.23
2023-01-25T16:42:52.924Z,68.36
2023-01-25T16:45:20.468Z,68.42
2023-01-25T16:47:48.669Z,68.24
2023-01-25T16:50:17.872Z,68.68
2023-01-25T16:52:45.930Z,67.96
2023-01-25T16:55:14.763Z,67.94
2023-01-25T16:57:44.576Z,68.41
2023-01-25T17:00:15.679Z,68.53
2023-01-25T17:02:58.241Z,67.95
2023-01-25T17:05:27.712Z,67.44
2023-01-25T17:07:55.228Z,67.32
2023-01-25T17:10:22.713Z,67.74
2023-01-25T17:12:51.920Z,67.95
2023-01-25T17:15:20.747Z,67.99
2023-01-25T17:17:48.236Z,67.67
2023-01-25T17:20:16.262Z,68.12
2023-01-25T17:22:49.426Z,68.58
2023-01-25T17:25:16.890Z,67.95
2023-01-25T17:27:44.360Z,68.51
2023-01-25T17:30:13.058Z,68.06
2023-01-25T17:32:41.879Z,67.65
2023-01-25T17:35:10.118Z,67.36
2023-01-25T17:37:40.874Z,67.87
2023-01-25T17:40:10.925Z,67.03
2023-01-25T17:42:38.742Z,67.65
2023-01-25T17:45:07.732Z,68.14
2023-01-25T17:47:35.458Z,68.09
2023-01-25T17:50:04.845Z,68.05
2023-01-25T17:52:32.476Z,67.78
2023-01-25T17:55:00.323Z,67.42
2023-01-25T17:57:31.213Z,67.76
2023-01-25T17:59:58.740Z,67.40
2023-01-25T18:02:26.331Z,67.84
2023-01-25T18:04:53.914Z,68.41
2023-01-25T18:07:22.714Z,67.72
2023-01-25T18:09:50.232Z,67.94
2023-01-25T18:12:20.503Z,67.40
2023-01-25T18:14:48.248Z,67.74
2023-01-25T18:17:15.735Z,67.91
2023-01-25T18:19:45.664Z,67.75
2023-01-25T18:22:13.883Z,68.16
2023-01-25T18:24:44.606Z,67.78
2023-01-25T18:27:20.025Z,68.51
2023-01-25T18:29:50.084Z,68.03
2023-01-25T18:32:18.158Z,68.05
2023-01-25T18:34:47.918Z,67.71
2023-01-25T18:37:21.796Z,67.95
2023-01-25T18:39:52.219Z,68.17
2023-01-25T18:42:20.754Z,68.10
2023-01-25T18:44:50.092Z,68.72
2023-01-25T18:47:19.397Z,68.36
2023-01-25T18:49:47.528Z,67.62
2023-01-25T18:52:16.455Z,68.16
2023-01-25T18:54:44.048Z,68.04
2023-01-25T18:57:13.348Z,67.48
2023-01-25T18:59:40.887Z,68.03
2023-01-25T19:02:10.913Z,67.29
2023-01-25T19:04:38.423Z,67.40
2023-01-25T19:07:05.976Z,67.52
2023-01-25T19:09:33.475Z,67.71
2023-01-25T19:12:01.285Z,67.89
2023-01-25T19:14:30.212Z,67.15
2023-01-25T19:16:57.686Z,67.45
2023-01-25T19:19:25.202Z,67.95
2023-01-25T19:21:52.729Z,67.26
2023-01-25T19:24:20.754Z,67.64
2023-01-25T19:26:48.346Z,68.02
2023-01-25T19:29:16.485Z,67.46
2023-01-25T19:31:45.347Z,67.79
2023-01-25T19:34:12.829Z,67.31
2023-01-25T19:36:45.696Z,66.72
2023-01-25T19:39:13.322Z,67.68
2023-01-25T19:41:40.969Z,67.69
2023-01-25T19:44:10.459Z,67.46
2023-01-25T19:46:38.090Z,68.18
2023-01-25T19:49:09.081Z,68.23
2023-01-25T19:51:37.962Z,67.91
2023-01-25T19:54:07.545Z,67.58
2023-01-25T19:56:37.403Z,67.79
2023-01-25T19:59:06.872Z,66.90
2023-01-25T20:01:36.433Z,67.57
2023-01-25T20:04:05.955Z,68.13
2023-01-25T20:06:34.937Z,67.84
2023-01-25T20:09:02.400Z,67.74
2023-01-25T20:11:31.920Z,68.16
2023-01-25T20:14:01.015Z,67.72
2023-01-25T20:16:30.411Z,68.03
2023-01-25T20:18:58.019Z,68.27
2023-01-25T20:21:26.796Z,67.44
2023-01-25T20:23:58.339Z,67.85
2023-01-25T20:26:27.684Z,68.47
2023-01-25T20:28:57.117Z,68.60
2023-01-25T20:31:26.691Z,68.08
2023-01-25T20:33:56.090Z,68.23
2023-01-25T20:36:24.456Z,67.94
2023-01-25T20:38:52.398Z,67.81
2023-01-25T20:41:21.281Z,67.74
2023-01-25T20:43:50.222Z,67.80
2023-01-25T20:46:19.082Z,67.67
2023-01-25T20:48:46.927Z,68.17
2023-01-25T20:51:16.921Z,67.45
2023-01-25T20:53:45.580Z,68.12
2023-01-25T20:56:14.789Z,68.41
2023-01-25T20:58:45.805Z,67.49
2023-01-25T21:01:17.693Z,68.31
2023-01-25T21:03:45.197Z,68.08
2023-01-25T21:06:13.261Z,67.87
2023-01-25T21:08:41.136Z,68.35
2023-01-25T21:11:08.955Z,67.83
2023-01-25T21:13:36.888Z,67.95
2023-01-25T21:16:10.032Z,67.81
2023-01-25T21:18:39.483Z,67.69
2023-01-25T21:21:09.254Z,67.89
2023-01-25T21:23:41.223Z,67.69
2023-01-25T21:26:11.299Z,68.21
2023-01-25T21:28:38.816Z,68.33
2023-01-25T21:31:12.160Z,68.32
2023-01-25T21:33:40.552Z,67.78
2023-01-25T21:36:11.264Z,67.65
2023-01-25T21:38:40.068Z,67.91
2023-01-25T21:41:10.592Z,67.31
2023-01-25T21:43:52.552Z,67.44
2023-01-25T21:46:26.299Z,67.36
2023-01-25T21:49:14.018Z,67.27
2023-01-25T21:51:49.217Z,67.14
2023-01-25T21:54:17.033Z,66.90
2023-01-25T21:56:44.791Z,67.69
2023-01-25T21:59:12.328Z,67.13
2023-01-25T22:01:42.981Z,68.02
2023-01-25T22:04:11.077Z,68.00
2023-01-25T22:06:38.635Z,67.66
2023-01-25T22:09:07.004Z,67.48
2023-01-25T22:11:34.906Z,67.61
2023-01-25T22:14:02.716Z,67.46
2023-01-25T22:16:30.467Z,67.75
2023-01-25T22:19:00.023Z,67.98
2023-01-25T22:21:30.694Z,68.23
2023-01-25T22:23:58.846Z,68.41
2023-01-25T22:26:30.663Z,67.79
2023-01-25T22:28:59.373Z,67.69
2023-01-25T22:31:29.041Z,68.37
2023-01-25T22:33:57.925Z,67.63
2023-01-25T22:36:28.575Z,67.82
2023-01-25T22:38:56.135Z,67.49
2023-01-25T22:41:25.573Z,68.11
2023-01-25T22:43:54.025Z,68.16
2023-01-25T22:46:23.673Z,67.91
2023-01-25T22:48:51.886Z,67.00
2023-01-25T22:51:21.792Z,67.31
2023-01-25T22:53:51.510Z,67.22
2023-01-25T22:56:21.130Z,67.21
2023-01-25T22:58:49.012Z,67.21
2023-01-25T23:01:18.375Z,67.26
2023-01-25T23:03:46.381Z,66.52
2023-01-25T23:06:15.676Z,66.88
2023-01-25T23:08:44.195Z,66.62
2023-01-25T23:11:15.548Z,67.05
2023-01-25T23:14:04.461Z,67.34
2023-01-25T23:16:32.536Z,66.76
2023-01-25T23:18:59.564Z,66.52
2023-01-25T23:21:31.039Z,66.59
2023-01-25T23:24:01.100Z,66.78
2023-01-25T23:26:38.007Z,67.23
2023-01-25T23:29:08.486Z,67.51
2023-01-25T23:31:36.652Z,67.26
2023-01-25T23:34:06.608Z,67.39
2023-01-25T23:36:35.747Z,66.80
2023-01-25T23:39:03.383Z,66.90
2023-01-25T23:41:33.410Z,66.79
2023-01-25T23:44:01.831Z,66.93
2023-01-25T23:46:29.390Z,66.36
2023-01-25T23:48:56.991Z,66.36
2023-01-25T23:51:24.598Z,66.91
2023-01-25T23:53:53.306Z,66.96
2023-01-25T23:56:22.559Z,66.58
2023-01-25T23:58:51.481Z,66.71
